Time;durP1;ratioP1;P1;durP2;ratioP2;P2;SDS_P1;SDS_P2;PMS_P1;PMS_P2;Temp;Humidity;BMP_temperature;BMP_pressure;BME280_temperature;BME280_humidity;BME280_pressure;Samples;Min_cycle;Max_cycle;Signal;HPM_P1;HPM_P2
2023/03/24 00:01:59;;;;;;;3.15;1.30;;;14.60;99.90;;;;;;5079157;28;20024;-82
2023/03/24 00:04:24;;;;;;;1.95;1.45;;;14.60;99.90;;;;;;5094984;28;20077;-82
2023/03/24 00:06:51;;;;;;;1.85;1.40;;;14.60;99.90;;;;;;5090109;28;20361;-81
2023/03/24 00:09:17;;;;;;;2.83;1.42;;;14.60;99.90;;;;;;5085091;28;20145;-80
2023/03/24 00:11:43;;;;;;;2.55;1.10;;;14.60;99.90;;;;;;5094385;28;20070;-82
2023/03/24 00:14:12;;;;;;;2.25;1.55;;;14.50;99.90;;;;;;5078977;28;20083;-82
2023/03/24 00:16:41;;;;;;;4.68;1.58;;;14.50;99.90;;;;;;5095625;28;20020;-81
2023/03/24 00:19:13;;;;;;;2.50;1.35;;;14.50;99.90;;;;;;5096300;28;20031;-82
2023/03/24 00:21:40;;;;;;;3.10;1.58;;;14.50;99.90;;;;;;5097751;28;20020;-83
2023/03/24 00:24:07;;;;;;;2.45;1.55;;;14.40;99.90;;;;;;5080621;28;20020;-79
2023/03/24 00:26:36;;;;;;;2.95;1.73;;;14.50;99.90;;;;;;5094907;28;20073;-80
2023/03/24 00:29:03;;;;;;;4.13;1.40;;;14.50;99.90;;;;;;5089974;28;20036;-79
2023/03/24 00:31:29;;;;;;;2.83;1.30;;;14.50;99.90;;;;;;5088103;28;20012;-78
2023/03/24 00:33:55;;;;;;;3.13;1.42;;;14.40;99.90;;;;;;5091467;28;20092;-78
2023/03/24 00:36:23;;;;;;;2.78;1.40;;;14.40;99.90;;;;;;5086204;28;20032;-78
2023/03/24 00:38:49;;;;;;;3.00;1.63;;;14.40;99.90;;;;;;5074453;28;20051;-78
2023/03/24 00:41:23;;;;;;;2.95;1.20;;;14.40;99.90;;;;;;5074014;28;20411;-77
2023/03/24 00:43:49;;;;;;;2.88;1.33;;;14.40;99.90;;;;;;5074971;28;20471;-78
2023/03/24 00:46:27;;;;;;;2.75;1.50;;;14.40;99.90;;;;;;5074069;28;20028;-78
2023/03/24 00:49:00;;;;;;;3.17;1.20;;;14.40;99.90;;;;;;5074224;28;20045;-78
2023/03/24 00:51:27;;;;;;;3.05;1.23;;;14.30;99.90;;;;;;5073743;28;20369;-78
2023/03/24 00:53:56;;;;;;;3.08;1.67;;;14.30;99.90;;;;;;5073260;28;20042;-77
2023/03/24 00:56:25;;;;;;;2.25;1.30;;;14.30;99.90;;;;;;5073649;28;20032;-77
2023/03/24 00:58:53;;;;;;;4.38;1.60;;;14.30;99.90;;;;;;5072889;28;20063;-77
2023/03/24 01:01:20;;;;;;;2.03;1.35;;;14.40;99.90;;;;;;5075165;28;20576;-78
2023/03/24 01:03:49;;;;;;;1.77;1.20;;;14.40;99.90;;;;;;5072931;28;20020;-75
2023/03/24 01:06:17;;;;;;;1.98;1.50;;;14.30;99.90;;;;;;5074595;28;20016;-75
2023/03/24 01:08:43;;;;;;;1.80;1.15;;;14.40;99.90;;;;;;5074422;28;20017;-77
2023/03/24 01:11:11;;;;;;;1.50;0.98;;;14.40;99.90;;;;;;5073743;28;20037;-76
2023/03/24 01:13:38;;;;;;;3.13;1.52;;;14.30;99.90;;;;;;5073722;28;20449;-78
2023/03/24 01:16:05;;;;;;;3.88;1.40;;;14.30;99.90;;;;;;5073298;28;20059;-76
2023/03/24 01:18:31;;;;;;;2.17;1.13;;;14.30;99.90;;;;;;5073589;28;20028;-75
2023/03/24 01:20:57;;;;;;;1.52;1.30;;;14.30;99.90;;;;;;5073732;28;20032;-76
2023/03/24 01:23:24;;;;;;;1.98;1.13;;;14.20;99.90;;;;;;5073125;28;20033;-76
2023/03/24 01:25:51;;;;;;;2.83;1.42;;;14.20;99.90;;;;;;5072405;28;20111;-76
2023/03/24 01:28:23;;;;;;;1.63;1.40;;;14.20;99.90;;;;;;5073018;28;20016;-75
2023/03/24 01:30:51;;;;;;;5.55;1.33;;;14.20;99.90;;;;;;5072593;28;20020;-76
2023/03/24 01:33:17;;;;;;;2.53;1.30;;;14.10;99.90;;;;;;5073096;28;20454;-77
2023/03/24 01:35:43;;;;;;;1.83;1.10;;;14.10;99.90;;;;;;5072668;28;20031;-78
2023/03/24 01:38:10;;;;;;;2.95;1.58;;;14.10;99.90;;;;;;5073206;28;20048;-77
2023/03/24 01:40:38;;;;;;;2.95;1.35;;;14.10;99.90;;;;;;5073266;28;20095;-77
2023/03/24 01:43:06;;;;;;;3.35;1.60;;;14.10;99.90;;;;;;5072995;28;20031;-77
2023/03/24 01:45:38;;;;;;;2.00;1.38;;;14.10;99.90;;;;;;5073290;28;20449;-77
2023/03/24 01:48:08;;;;;;;;;;;14.10;99.90;;;;;;5072999;28;20020;-77
2023/03/24 01:50:34;;;;;;;4.72;1.00;;;14.10;99.90;;;;;;5073941;28;19922;-77
2023/03/24 01:53:00;;;;;;;3.47;1.40;;;14.10;99.90;;;;;;5073506;28;20030;-77
2023/03/24 01:55:28;;;;;;;2.00;1.27;;;14.10;99.90;;;;;;5072567;28;20053;-77
2023/03/24 01:57:59;;;;;;;1.52;1.10;;;14.10;99.90;;;;;;5072100;28;20031;-77
2023/03/24 02:00:25;;;;;;;4.22;1.60;;;14.10;99.90;;;;;;5074342;28;20454;-77
2023/03/24 02:02:57;;;;;;;2.13;1.55;;;14.10;99.90;;;;;;5073010;28;20016;-77
2023/03/24 02:05:28;;;;;;;2.03;1.50;;;14.10;99.90;;;;;;5072980;28;20025;-77
2023/03/24 02:08:15;;;;;;;2.97;1.80;;;14.10;99.90;;;;;;5072427;28;20111;-77
2023/03/24 02:10:42;;;;;;;2.50;1.65;;;14.10;99.90;;;;;;5073988;28;20056;-82
2023/03/24 02:13:09;;;;;;;3.72;1.80;;;14.10;99.90;;;;;;5072782;28;20381;-77
2023/03/24 02:15:48;;;;;;;2.70;1.90;;;14.10;99.90;;;;;;5073868;28;20019;-75
2023/03/24 02:18:24;;;;;;;2.78;1.52;;;14.10;99.90;;;;;;5073630;28;20024;-75
2023/03/24 02:21:08;;;;;;;2.22;1.90;;;14.10;99.90;;;;;;5071581;28;20135;-76
2023/03/24 02:23:47;;;;;;;3.92;2.00;;;14.10;99.90;;;;;;5072250;28;20028;-76
2023/03/24 02:26:18;;;;;;;4.15;1.85;;;14.10;99.90;;;;;;5072408;28;20029;-76
2023/03/24 02:28:52;;;;;;;2.28;1.60;;;14.10;99.90;;;;;;5072358;28;20449;-82
2023/03/24 02:31:55;;;;;;;3.78;2.00;;;14.10;99.90;;;;;;5073625;28;20465;-76
2023/03/24 02:34:26;;;;;;;2.97;1.70;;;14.10;99.90;;;;;;5072441;28;20419;-76
2023/03/24 02:37:31;;;;;;;2.95;1.92;;;14.10;99.90;;;;;;5072895;28;20166;-76
2023/03/24 02:40:00;;;;;;;2.20;1.80;;;14.10;99.90;;;;;;5041815;28;20044;-77
2023/03/24 02:42:31;;;;;;;2.80;1.92;;;14.20;99.90;;;;;;5073561;28;20105;-77
2023/03/24 02:45:06;;;;;;;3.38;1.77;;;14.20;99.90;;;;;;5074302;28;20024;-78
2023/03/24 02:47:44;;;;;;;3.88;2.33;;;14.10;99.90;;;;;;5077378;28;20025;-76
2023/03/24 02:50:27;;;;;;;3.08;1.65;;;14.10;99.90;;;;;;5077216;28;20024;-76
2023/03/24 02:52:59;;;;;;;3.10;1.95;;;14.10;99.90;;;;;;5076975;28;20024;-79
2023/03/24 02:55:35;;;;;;;2.85;1.65;;;14.00;99.90;;;;;;5077524;28;20104;-79
2023/03/24 02:58:06;;;;;;;2.92;1.77;;;14.00;99.90;;;;;;5076114;28;20125;-79
2023/03/24 03:00:41;;;;;;;2.90;1.75;;;14.10;99.90;;;;;;5077483;28;20031;-79
2023/03/24 03:03:33;;;;;;;3.58;1.48;;;14.10;99.90;;;;;;5076066;28;20035;-77
2023/03/24 03:06:04;;;;;;;4.68;2.00;;;14.10;99.90;;;;;;5077024;28;20020;-76
2023/03/24 03:08:32;;;;;;;2.65;1.73;;;14.10;99.90;;;;;;5077470;28;20052;-76
2023/03/24 03:10:59;;;;;;;24.65;8.10;;;14.20;99.90;;;;;;5075540;28;20028;-77
2023/03/24 03:13:33;;;;;;;38.35;12.70;;;14.20;99.90;;;;;;5077474;28;20017;-76
2023/03/24 03:16:08;;;;;;;17.08;7.50;;;14.20;99.90;;;;;;5075461;28;20082;-77
2023/03/24 03:19:09;;;;;;;31.08;11.75;;;14.20;99.90;;;;;;5075970;28;20033;-76
2023/03/24 03:21:40;;;;;;;23.45;8.18;;;14.20;99.90;;;;;;5062552;28;20039;-76
2023/03/24 03:24:29;;;;;;;22.00;9.02;;;14.20;99.90;;;;;;5075352;28;20051;-76
2023/03/24 03:27:00;;;;;;;14.65;6.35;;;14.20;99.90;;;;;;5075823;28;20024;-76
2023/03/24 03:29:32;;;;;;;8.75;3.80;;;14.10;99.90;;;;;;5075255;28;20070;-76
2023/03/24 03:32:06;;;;;;;;;;;14.10;99.90;;;;;;5075855;28;20115;-76
2023/03/24 03:35:12;;;;;;;5.55;2.20;;;14.20;99.90;;;;;;5075665;28;19900;-76
2023/03/24 03:38:02;;;;;;;5.32;2.00;;;14.20;99.90;;;;;;5074487;28;20048;-76
2023/03/24 03:40:37;;;;;;;5.70;2.38;;;14.20;99.90;;;;;;5053207;28;20043;-76
2023/03/24 03:43:04;;;;;;;2.70;1.88;;;14.30;99.90;;;;;;5074974;28;20083;-77
2023/03/24 03:45:29;;;;;;;4.95;2.33;;;14.20;99.90;;;;;;5075631;28;20094;-78
2023/03/24 03:47:55;;;;;;;3.90;1.92;;;14.20;99.90;;;;;;5073748;28;20028;-78
2023/03/24 03:50:21;;;;;;;4.15;2.20;;;14.20;99.90;;;;;;5074498;28;20055;-77
2023/03/24 03:52:47;;;;;;;8.48;2.35;;;14.30;99.90;;;;;;5075256;28;20023;-83
2023/03/24 03:55:13;;;;;;;4.32;1.92;;;14.20;99.90;;;;;;5074671;28;20408;-77
2023/03/24 03:57:39;;;;;;;3.60;1.98;;;14.20;99.90;;;;;;5073508;28;20028;-77
2023/03/24 04:00:10;;;;;;;4.93;2.00;;;14.20;99.90;;;;;;5073535;28;20054;-76
2023/03/24 04:02:48;;;;;;;3.45;2.05;;;14.30;99.90;;;;;;5073606;28;20361;-76
2023/03/24 04:05:34;;;;;;;6.22;2.17;;;14.20;99.90;;;;;;5073756;28;20024;-76
2023/03/24 04:08:07;;;;;;;2.92;2.08;;;14.20;99.90;;;;;;5073219;28;20074;-77
2023/03/24 04:10:44;;;;;;;3.95;1.92;;;14.20;99.90;;;;;;5073313;28;20028;-76
2023/03/24 04:13:44;;;;;;;3.20;2.28;;;14.30;99.90;;;;;;5073035;28;20461;-77
2023/03/24 04:16:28;;;;;;;5.43;1.95;;;14.30;99.90;;;;;;5072764;28;20491;-76
2023/03/24 04:19:09;;;;;;;2.50;1.80;;;14.30;99.90;;;;;;5073872;28;20449;-77
2023/03/24 04:21:52;;;;;;;3.72;1.90;;;14.40;99.90;;;;;;5074643;28;20020;-77
2023/03/24 04:24:36;;;;;;;5.60;2.30;;;14.40;99.90;;;;;;5074743;28;20121;-77
2023/03/24 04:27:16;;;;;;;3.58;2.08;;;14.50;99.90;;;;;;5073018;28;20469;-76
2023/03/24 04:30:29;;;;;;;3.67;2.28;;;14.60;99.90;;;;;;5073347;28;20023;-77
2023/03/24 04:33:03;;;;;;;4.90;2.72;;;14.60;99.90;;;;;;5070433;28;20484;-77
2023/03/24 04:35:39;;;;;;;4.43;2.55;;;14.70;99.90;;;;;;5072886;28;20042;-77
2023/03/24 04:38:09;;;;;;;5.22;2.67;;;14.70;99.90;;;;;;5032710;28;1131519;-76
2023/03/24 04:40:40;;;;;;;4.43;2.47;;;14.60;99.90;;;;;;5069588;28;20029;-77
2023/03/24 04:43:08;;;;;;;6.10;3.33;;;14.60;99.90;;;;;;5069081;28;20025;-77
2023/03/24 04:45:35;;;;;;;4.10;2.60;;;14.50;99.90;;;;;;5073851;28;20284;-77
2023/03/24 04:48:04;;;;;;;5.45;2.88;;;14.50;99.90;;;;;;5074307;28;20017;-77
2023/03/24 04:50:37;;;;;;;4.00;2.92;;;14.40;99.90;;;;;;5075089;28;20048;-77
2023/03/24 04:53:04;;;;;;;4.32;2.85;;;14.40;99.90;;;;;;5072925;28;20024;-76
2023/03/24 04:55:48;;;;;;;5.18;3.30;;;14.30;99.90;;;;;;5073272;28;20031;-77
2023/03/24 04:58:15;;;;;;;9.55;3.83;;;14.20;99.90;;;;;;5073973;28;20036;-77
2023/03/24 05:00:43;;;;;;;5.00;3.75;;;14.10;99.90;;;;;;5074447;28;20091;-78
2023/03/24 05:03:12;;;;;;;7.25;3.83;;;14.00;99.90;;;;;;5072517;28;20021;-77
2023/03/24 05:05:47;;;;;;;5.45;3.58;;;13.90;99.90;;;;;;5072747;28;20111;-76
2023/03/24 05:08:13;;;;;;;6.07;4.18;;;13.90;99.90;;;;;;5071569;28;20175;-77
2023/03/24 05:10:39;;;;;;;7.20;3.88;;;13.90;99.90;;;;;;5073013;28;20025;-76
2023/03/24 05:13:06;;;;;;;6.68;3.70;;;13.80;99.90;;;;;;5072809;28;20385;-77
2023/03/24 05:15:32;;;;;;;6.68;3.95;;;13.80;99.90;;;;;;5074474;28;20078;-76
2023/03/24 05:17:58;;;;;;;5.40;3.53;;;13.70;99.90;;;;;;5072347;28;20025;-77
2023/03/24 05:20:25;;;;;;;5.30;4.05;;;13.70;99.90;;;;;;5074261;28;20056;-76
2023/03/24 05:22:51;;;;;;;7.00;4.10;;;13.70;99.90;;;;;;5072960;28;20116;-78
2023/03/24 05:25:17;;;;;;;7.13;4.32;;;13.70;99.90;;;;;;5073193;28;20108;-77
2023/03/24 05:27:43;;;;;;;7.93;4.38;;;13.70;99.90;;;;;;5073392;28;20052;-77
2023/03/24 05:30:10;;;;;;;6.78;4.00;;;13.70;99.90;;;;;;5074039;28;20454;-77
2023/03/24 05:32:35;;;;;;;5.72;3.15;;;13.60;99.90;;;;;;5073247;28;20044;-77
2023/03/24 05:35:02;;;;;;;7.03;3.13;;;13.60;99.90;;;;;;5072973;28;20420;-76
2023/03/24 05:37:27;;;;;;;4.15;2.75;;;13.60;99.90;;;;;;5074089;28;20098;-79
2023/03/24 05:39:53;;;;;;;5.85;3.05;;;13.60;99.90;;;;;;5073319;28;20449;-82
2023/03/24 05:42:19;;;;;;;5.45;2.80;;;13.50;99.90;;;;;;5073121;28;20040;-77
2023/03/24 05:44:46;;;;;;;3.60;2.60;;;13.50;99.90;;;;;;5074467;28;20019;-77
2023/03/24 05:47:14;;;;;;;5.85;3.00;;;13.50;99.90;;;;;;5072438;28;20020;-78
2023/03/24 05:49:43;;;;;;;4.43;3.00;;;13.60;99.90;;;;;;5074096;28;20017;-77
2023/03/24 05:52:10;;;;;;;3.90;3.03;;;13.60;99.90;;;;;;5073435;28;20025;-77
2023/03/24 05:54:38;;;;;;;4.35;2.63;;;13.50;99.90;;;;;;5073929;28;20480;-77
2023/03/24 05:57:06;;;;;;;4.32;2.50;;;13.50;99.90;;;;;;5072341;28;20054;-77
2023/03/24 05:59:33;;;;;;;8.00;3.55;;;13.50;99.90;;;;;;5074093;28;20073;-77
2023/03/24 06:01:59;;;;;;;6.18;2.97;;;13.50;99.90;;;;;;5072099;28;20021;-77
2023/03/24 06:04:29;;;;;;;4.43;2.72;;;13.50;99.90;;;;;;5073833;28;20031;-78
2023/03/24 06:06:58;;;;;;;3.83;2.97;;;13.60;99.90;;;;;;5073623;28;20442;-81
2023/03/24 06:09:28;;;;;;;5.47;2.88;;;13.60;99.90;;;;;;5072482;28;20017;-77
2023/03/24 06:11:54;;;;;;;4.78;2.83;;;13.60;99.90;;;;;;5072911;28;20380;-81
2023/03/24 06:14:20;;;;;;;5.05;3.00;;;13.60;99.90;;;;;;5072253;28;20021;-77
2023/03/24 06:16:49;;;;;;;4.28;3.20;;;13.60;99.90;;;;;;5072506;28;20376;-77
2023/03/24 06:19:15;;;;;;;3.63;2.97;;;13.60;99.90;;;;;;5071833;28;20062;-77
2023/03/24 06:21:40;;;;;;;4.80;2.80;;;13.60;99.90;;;;;;5072482;28;20027;-77
2023/03/24 06:24:06;;;;;;;4.05;2.70;;;13.60;99.90;;;;;;5072245;28;20111;-77
2023/03/24 06:26:32;;;;;;;4.55;2.90;;;13.60;99.90;;;;;;5072770;28;20024;-78
2023/03/24 06:28:58;;;;;;;4.90;3.20;;;13.60;99.90;;;;;;5072405;28;20081;-83
2023/03/24 06:31:24;;;;;;;6.60;3.53;;;13.60;99.90;;;;;;5072876;28;20048;-78
2023/03/24 06:33:51;;;;;;;5.13;3.10;;;13.60;99.90;;;;;;5072730;28;20342;-78
2023/03/24 06:36:17;;;;;;;6.57;2.95;;;13.70;99.90;;;;;;5072933;28;20025;-78
2023/03/24 06:38:44;;;;;;;3.90;2.70;;;13.60;99.90;;;;;;5072016;28;20056;-78
2023/03/24 06:41:10;;;;;;;4.57;2.90;;;13.60;99.90;;;;;;5072996;28;20106;-78
2023/03/24 06:43:36;;;;;;;5.25;3.00;;;13.60;99.90;;;;;;5072304;28;20020;-78
2023/03/24 06:46:02;;;;;;;5.85;2.85;;;13.60;99.90;;;;;;5071542;28;20111;-79
2023/03/24 06:48:28;;;;;;;5.60;2.75;;;13.60;99.90;;;;;;5072473;28;20027;-78
2023/03/24 06:50:55;;;;;;;4.85;3.05;;;13.60;99.90;;;;;;5072870;28;20027;-80
2023/03/24 06:53:21;;;;;;;3.95;2.95;;;13.60;99.90;;;;;;5072741;28;20078;-80
2023/03/24 06:55:48;;;;;;;4.38;3.10;;;13.60;99.90;;;;;;5072452;28;20373;-79
2023/03/24 06:58:14;;;;;;;3.90;2.65;;;13.60;99.90;;;;;;5071984;28;20036;-80
2023/03/24 07:00:41;;;;;;;6.88;3.28;;;13.60;99.90;;;;;;5072191;28;20142;-78
2023/03/24 07:03:07;;;;;;;3.85;2.53;;;13.50;99.90;;;;;;5073196;28;20021;-78
2023/03/24 07:05:37;;;;;;;6.05;2.90;;;13.50;99.90;;;;;;5072124;28;20020;-78
2023/03/24 07:08:03;;;;;;;3.42;2.70;;;13.50;99.90;;;;;;5072306;28;20043;-79
2023/03/24 07:10:29;;;;;;;3.45;2.40;;;13.50;99.90;;;;;;5072316;28;20024;-78
2023/03/24 07:12:55;;;;;;;4.93;2.70;;;13.50;99.90;;;;;;5073204;28;20024;-77
2023/03/24 07:15:20;;;;;;;4.43;2.70;;;13.50;99.90;;;;;;5071665;28;20027;-77
2023/03/24 07:17:46;;;;;;;4.40;2.47;;;13.50;99.90;;;;;;5073164;28;20082;-77
2023/03/24 07:20:11;;;;;;;4.45;2.85;;;13.50;99.90;;;;;;5071673;28;20016;-77
2023/03/24 07:22:37;;;;;;;4.85;2.55;;;13.50;99.90;;;;;;5072074;28;20055;-77
2023/03/24 07:25:04;;;;;;;6.85;2.85;;;13.40;99.90;;;;;;5072597;28;20078;-79
2023/03/24 07:27:33;;;;;;;4.78;2.33;;;13.40;99.90;;;;;;5072857;28;20036;-77
2023/03/24 07:30:00;;;;;;;4.68;2.60;;;13.30;99.90;;;;;;5072153;28;20033;-81
2023/03/24 07:32:29;;;;;;;3.78;2.40;;;13.40;99.90;;;;;;5075700;28;20047;-77
2023/03/24 07:34:56;;;;;;;4.63;2.60;;;13.30;99.90;;;;;;5076589;28;20044;-76
2023/03/24 07:37:22;;;;;;;4.80;2.70;;;13.40;99.90;;;;;;5075857;28;20032;-77
2023/03/24 07:39:47;;;;;;;3.63;2.53;;;13.40;99.90;;;;;;5075243;28;20029;-76
2023/03/24 07:42:13;;;;;;;3.20;2.50;;;13.40;99.90;;;;;;5075239;28;20374;-77
2023/03/24 07:44:39;;;;;;;4.93;2.90;;;13.40;99.90;;;;;;5075186;28;20446;-76
2023/03/24 07:47:04;;;;;;;3.05;2.50;;;13.40;99.90;;;;;;5074949;28;20036;-76
2023/03/24 07:49:30;;;;;;;3.50;2.67;;;13.50;99.90;;;;;;5076369;28;20392;-76
2023/03/24 07:51:57;;;;;;;3.53;2.45;;;13.40;99.90;;;;;;5076275;28;20020;-76
2023/03/24 07:54:23;;;;;;;6.25;2.95;;;13.40;99.90;;;;;;5074518;28;20032;-76
2023/03/24 07:56:49;;;;;;;3.63;2.60;;;13.40;99.90;;;;;;5074857;28;20032;-76
2023/03/24 07:59:16;;;;;;;3.88;2.42;;;13.50;99.90;;;;;;5073232;28;20451;-81
2023/03/24 08:01:41;;;;;;;3.90;2.65;;;13.50;99.90;;;;;;5081913;28;20039;-76
2023/03/24 08:04:12;;;;;;;4.82;2.42;;;13.60;99.90;;;;;;5089720;28;20020;-77
2023/03/24 08:06:38;;;;;;;6.18;2.25;;;13.50;99.90;;;;;;5075432;28;20441;-77
2023/03/24 08:09:04;;;;;;;3.17;1.95;;;13.60;99.90;;;;;;5073875;28;20024;-83
2023/03/24 08:11:30;;;;;;;6.18;2.30;;;13.60;99.90;;;;;;5079695;28;20035;-78
2023/03/24 08:13:57;;;;;;;4.28;2.38;;;13.60;99.90;;;;;;5086801;28;20027;-77
2023/03/24 08:16:23;;;;;;;5.22;2.10;;;13.60;99.90;;;;;;5091538;28;20028;-78
2023/03/24 08:18:49;;;;;;;6.15;2.03;;;13.60;99.90;;;;;;5094628;28;20429;-77
2023/03/24 08:21:15;;;;;;;3.72;1.90;;;13.60;99.90;;;;;;5095426;28;20118;-77
2023/03/24 08:23:41;;;;;;;2.00;1.60;;;13.70;99.90;;;;;;5084784;28;20048;-79
2023/03/24 08:26:09;;;;;;;2.92;2.15;;;13.70;99.90;;;;;;5075233;28;20062;-79
2023/03/24 08:28:35;;;;;;;2.58;1.92;;;13.80;99.90;;;;;;5093056;28;20073;-79
2023/03/24 08:31:01;;;;;;;3.10;1.70;;;13.80;99.90;;;;;;5079359;28;20028;-83
2023/03/24 08:33:27;;;;;;;2.50;1.80;;;13.90;99.90;;;;;;5082526;28;20024;-76
2023/03/24 08:35:56;;;;;;;2.90;2.15;;;14.00;99.90;;;;;;5082041;28;20028;-77
2023/03/24 08:38:29;;;;;;;3.20;2.13;;;14.00;99.90;;;;;;5068263;28;20052;-81
2023/03/24 08:40:57;;;;;;;4.75;2.30;;;13.90;99.90;;;;;;5072786;28;20025;-77
2023/03/24 08:43:24;;;;;;;3.67;1.90;;;13.90;99.90;;;;;;5078371;28;20465;-77
2023/03/24 08:45:50;;;;;;;3.15;1.63;;;13.90;99.90;;;;;;5082485;28;20016;-77
2023/03/24 08:48:15;;;;;;;3.03;1.52;;;14.10;99.90;;;;;;5073156;28;20117;-77
2023/03/24 08:50:41;;;;;;;1.70;1.42;;;14.10;99.90;;;;;;5089709;28;20112;-77
2023/03/24 08:53:08;;;;;;;2.75;1.48;;;14.20;99.90;;;;;;5076446;28;20090;-78
2023/03/24 08:55:36;;;;;;;3.13;1.52;;;14.20;99.90;;;;;;5081851;28;20031;-76
2023/03/24 08:58:02;;;;;;;4.90;2.03;;;14.30;99.90;;;;;;5082822;28;20422;-83
2023/03/24 09:00:28;;;;;;;7.80;1.65;;;14.40;99.90;;;;;;5083244;28;20043;-78
2023/03/24 09:02:55;;;;;;;3.20;1.50;;;14.40;99.90;;;;;;5082830;28;20048;-79
2023/03/24 09:05:22;;;;;;;2.75;1.77;;;14.50;99.90;;;;;;5082525;28;20066;-77
2023/03/24 09:07:49;;;;;;;1.85;1.50;;;14.50;99.90;;;;;;5085489;28;20032;-78
2023/03/24 09:10:16;;;;;;;3.35;1.48;;;14.50;99.90;;;;;;5084056;28;20016;-79
2023/03/24 09:12:43;;;;;;;2.30;1.67;;;14.60;99.90;;;;;;5083707;28;20109;-77
2023/03/24 09:15:10;;;;;;;3.10;1.70;;;14.70;99.90;;;;;;5080413;28;20024;-78
2023/03/24 09:17:36;;;;;;;3.17;1.83;;;14.60;99.90;;;;;;5080632;28;20169;-78
2023/03/24 09:20:07;;;;;;;3.78;1.60;;;14.40;99.90;;;;;;5080444;28;20086;-86
2023/03/24 09:22:35;;;;;;;2.60;1.80;;;14.30;99.90;;;;;;5082715;28;20020;-80
2023/03/24 09:25:01;;;;;;;5.28;2.05;;;14.30;99.90;;;;;;5076707;28;20051;-80
2023/03/24 09:27:26;;;;;;;4.45;1.98;;;14.30;99.90;;;;;;5080990;28;20020;-81
2023/03/24 09:29:52;;;;;;;2.90;2.03;;;14.30;99.90;;;;;;5081972;28;20431;-79
2023/03/24 09:32:18;;;;;;;2.95;1.85;;;14.30;99.90;;;;;;5085885;28;20104;-88
2023/03/24 09:34:44;;;;;;;4.85;2.30;;;14.30;99.90;;;;;;5087764;28;20396;-86
2023/03/24 09:37:09;;;;;;;4.05;1.70;;;14.30;99.90;;;;;;5076935;28;20073;-89
2023/03/24 09:39:35;;;;;;;3.75;1.70;;;14.50;99.90;;;;;;5086526;28;20056;-89
2023/03/24 09:42:11;;;;;;;3.92;1.98;;;14.50;99.90;;;;;;5079826;28;20047;-89
2023/03/24 09:44:42;;;;;;;6.07;1.92;;;14.70;99.90;;;;;;5079399;28;20400;-87
2023/03/24 09:47:28;;;;;;;3.78;1.92;;;14.70;99.90;;;;;;5078132;28;20040;-87
2023/03/24 09:50:00;;;;;;;3.80;1.88;;;14.70;99.90;;;;;;5092671;28;20036;-87
2023/03/24 09:52:33;;;;;;;1.70;1.60;;;14.60;99.90;;;;;;5093182;28;20115;-88
2023/03/24 09:55:02;;;;;;;2.58;1.63;;;14.60;99.90;;;;;;5096536;28;20053;-89
2023/03/24 09:57:38;;;;;;;6.38;1.65;;;14.50;99.90;;;;;;5099927;28;20020;-88
2023/03/24 10:00:21;;;;;;;1.65;1.42;;;14.50;99.90;;;;;;5094261;28;20062;-92
2023/03/24 10:02:49;;;;;;;2.28;1.60;;;14.60;99.90;;;;;;5084486;28;20048;-87
2023/03/24 10:05:36;;;;;;;2.35;1.40;;;14.60;99.90;;;;;;5085547;28;20047;-86
2023/03/24 10:08:36;;;;;;;2.78;1.60;;;14.60;99.90;;;;;;5090079;28;20033;-86
2023/03/24 10:11:05;;;;;;;1.90;1.20;;;14.60;99.90;;;;;;5081995;28;20024;-88
2023/03/24 10:14:17;;;;;;;2.92;1.65;;;14.60;99.90;;;;;;5077856;28;20021;-89
2023/03/24 10:16:45;;;;;;;1.92;1.45;;;14.70;99.90;;;;;;5045714;28;20044;-85
2023/03/24 10:19:45;;;;;;;2.28;1.27;;;14.70;99.90;;;;;;5077943;28;20033;-83
2023/03/24 10:22:26;;;;;;;1.92;1.30;;;14.70;99.90;;;;;;5076758;28;20024;-83
2023/03/24 10:25:07;;;;;;;1.50;1.40;;;14.80;99.90;;;;;;5086129;28;20032;-84
2023/03/24 10:28:08;;;;;;;1.65;1.52;;;14.70;99.90;;;;;;5086075;28;20024;-85
2023/03/24 10:30:39;;;;;;;2.55;1.30;;;14.70;99.90;;;;;;5077916;28;20051;-86
2023/03/24 10:33:04;;;;;;;3.78;1.30;;;14.70;99.90;;;;;;5079893;28;20310;-89
2023/03/24 10:35:36;;;;;;;2.45;1.20;;;14.70;99.90;;;;;;5084737;28;20016;-82
2023/03/24 10:38:10;;;;;;;2.92;1.20;;;14.70;99.90;;;;;;5087082;28;20062;-83
2023/03/24 10:40:36;;;;;;;3.88;1.35;;;14.70;99.90;;;;;;5072481;28;20033;-84
2023/03/24 10:43:04;;;;;;;3.55;1.17;;;14.60;99.90;;;;;;5079968;28;20473;-82
2023/03/24 10:45:32;;;;;;;1.95;1.15;;;14.60;99.90;;;;;;5079090;28;20024;-84
2023/03/24 10:48:00;;;;;;;3.17;1.35;;;14.60;99.90;;;;;;5077603;28;20020;-84
2023/03/24 10:50:28;;;;;;;4.35;2.10;;;14.60;99.90;;;;;;5076579;28;20028;-85
2023/03/24 10:52:54;;;;;;;4.88;2.38;;;14.50;99.90;;;;;;5088858;28;20020;-86
2023/03/24 10:55:28;;;;;;;2.92;1.90;;;14.40;99.90;;;;;;5082950;28;20016;-86
2023/03/24 10:57:56;;;;;;;3.53;2.40;;;14.30;99.90;;;;;;5067148;28;20092;-80
2023/03/24 11:00:31;;;;;;;3.95;1.90;;;14.20;99.90;;;;;;5083445;28;20028;-80
2023/03/24 11:03:11;;;;;;;5.38;2.05;;;14.20;99.90;;;;;;5073948;28;20023;-83
2023/03/24 11:05:40;;;;;;;2.58;1.95;;;14.20;99.90;;;;;;5082442;28;20046;-82
2023/03/24 11:08:27;;;;;;;2.60;1.60;;;14.30;99.90;;;;;;5084757;28;20043;-86
2023/03/24 11:10:54;;;;;;;3.10;1.80;;;14.40;99.90;;;;;;5090620;28;20088;-83
2023/03/24 11:13:41;;;;;;;2.80;1.60;;;14.50;99.90;;;;;;5080537;28;20134;-83
2023/03/24 11:16:13;;;;;;;7.47;1.40;;;14.50;99.90;;;;;;5078806;28;20424;-84
2023/03/24 11:18:57;;;;;;;;;;;14.60;99.90;;;;;;5072901;28;20024;-83
2023/03/24 11:21:25;;;;;;;2.97;1.70;;;14.60;99.90;;;;;;5076103;28;19900;-83
2023/03/24 11:23:50;;;;;;;1.55;1.30;;;14.60;99.90;;;;;;5090545;28;20046;-81
2023/03/24 11:26:30;;;;;;;3.03;1.17;;;14.60;99.90;;;;;;5076631;28;20368;-83
2023/03/24 11:28:59;;;;;;;4.70;1.30;;;14.60;99.90;;;;;;5079713;28;20020;-84
2023/03/24 11:31:29;;;;;;;1.98;1.10;;;14.60;99.90;;;;;;5095396;28;20106;-84
2023/03/24 11:33:55;;;;;;;2.03;1.38;;;14.60;99.90;;;;;;5087519;28;20078;-83
2023/03/24 11:36:31;;;;;;;1.20;1.05;;;14.60;99.90;;;;;;5075199;28;20027;-86
2023/03/24 11:39:20;;;;;;;2.58;1.10;;;14.70;99.90;;;;;;5075812;28;20059;-87
2023/03/24 11:42:04;;;;;;;3.47;1.35;;;14.80;99.90;;;;;;5067758;28;20036;-89
2023/03/24 11:44:50;;;;;;;1.42;1.15;;;14.80;99.90;;;;;;5078203;28;20031;-88
2023/03/24 11:47:34;;;;;;;5.80;1.20;;;14.70;99.90;;;;;;5095619;28;20089;-87
2023/03/24 11:50:08;;;;;;;2.00;0.65;;;14.50;99.90;;;;;;5094376;28;20119;-91
2023/03/24 11:52:49;;;;;;;3.45;0.70;;;13.50;99.90;;;;;;5085864;28;20052;-86
2023/03/24 11:55:17;;;;;;;5.82;0.85;;;13.00;99.90;;;;;;5083327;28;20372;-86
2023/03/24 11:57:55;;;;;;;1.52;0.60;;;12.70;99.90;;;;;;5088453;28;20433;-83
2023/03/24 12:00:27;;;;;;;1.25;0.57;;;12.60;99.90;;;;;;5084268;28;20040;-86
2023/03/24 12:03:05;;;;;;;2.28;0.70;;;12.60;99.90;;;;;;5081124;28;20107;-88
2023/03/24 12:05:43;;;;;;;2.55;0.65;;;12.70;99.90;;;;;;5087793;28;20046;-88
2023/03/24 12:08:28;;;;;;;2.35;0.40;;;12.70;99.90;;;;;;5095339;28;20035;-85
2023/03/24 12:11:18;;;;;;;3.13;0.68;;;12.60;99.90;;;;;;5073510;28;20028;-84
2023/03/24 12:13:50;;;;;;;4.72;0.60;;;12.60;99.90;;;;;;5075943;28;20031;-82
2023/03/24 12:16:23;;;;;;;3.13;0.60;;;12.60;99.90;;;;;;5073463;28;20095;-87
2023/03/24 12:18:57;;;;;;;3.70;0.70;;;12.60;99.90;;;;;;5085354;28;20026;-89
2023/03/24 12:21:54;;;;;;;2.97;0.70;;;12.60;99.90;;;;;;5085306;28;20095;-88
2023/03/24 12:24:50;;;;;;;2.67;0.60;;;12.60;99.90;;;;;;5075991;28;20028;-84
2023/03/24 12:27:41;;;;;;;2.55;0.60;;;12.50;99.90;;;;;;5083789;28;20024;-85
2023/03/24 12:30:40;;;;;;;5.32;0.77;;;12.60;99.90;;;;;;5087264;28;20027;-87
2023/03/24 12:33:43;;;;;;;3.55;0.70;;;12.60;99.90;;;;;;5069831;28;20020;-87
2023/03/24 12:36:30;;;;;;;2.22;0.50;;;12.70;99.90;;;;;;5091297;28;20024;-94
2023/03/24 12:39:31;;;;;;;6.15;0.50;;;12.50;99.90;;;;;;5061416;28;20106;-88
2023/03/24 12:42:19;;;;;;;2.60;0.70;;;12.50;99.90;;;;;;5089143;28;20028;-88
2023/03/24 12:44:45;;;;;;;5.30;0.70;;;12.40;99.90;;;;;;5068089;28;20019;-80
2023/03/24 12:47:44;;;;;;;3.22;0.70;;;12.40;99.90;;;;;;5086678;28;20031;-81
2023/03/24 12:50:44;;;;;;;1.77;0.75;;;12.50;99.90;;;;;;5074950;28;20534;-85
2023/03/24 12:53:35;;;;;;;2.75;0.40;;;12.60;99.90;;;;;;5071228;28;20071;-88
2023/03/24 12:56:15;;;;;;;4.57;0.52;;;12.70;99.90;;;;;;5084272;28;20040;-82
2023/03/24 12:58:50;;;;;;;2.38;0.55;;;12.90;99.90;;;;;;5101464;27;20469;-85
2023/03/24 13:01:50;;;;;;;3.83;0.60;;;12.80;99.90;;;;;;5090669;28;20024;-91
2023/03/24 13:04:29;;;;;;;3.47;0.70;;;12.80;99.90;;;;;;5068590;28;20064;-90
2023/03/24 13:07:20;;;;;;;3.05;0.60;;;12.80;99.90;;;;;;5074687;28;20467;-87
2023/03/24 13:09:53;;;;;;;2.75;0.63;;;12.80;99.90;;;;;;5088761;28;20024;-86
2023/03/24 13:12:26;;;;;;;2.05;0.85;;;12.90;99.90;;;;;;5092208;28;20031;-88
2023/03/24 13:15:10;;;;;;;2.53;0.60;;;12.90;99.90;;;;;;5082902;28;20426;-86